FIN88 ZSPD-EFHK
Flight info
| Callsign | FIN88 |
|---|---|
| Flight time | N/A |
| Altitude | 34100 |
| Route | PIK81D PIKAS G330 PIMOL A593 DALIM W157 BEKDO/K0928S1010 W157 VYK G212 SOTMU/K0917S1040 B339 ASILA A575 UPREK W28 LAGEB W66 NUKTI B215 DUMAM/K0911S1100 B215 KABDO W119 GOBOK A343 RULAD/K0896F360 M610 ARBOL Z621 GENDI N147 OTBOR/N0485F360 A480 TIMGA B476 OGLID/N0488F380 B476 METKA L88 NIJAT N644 TETRO M10 SARPI UM10 GOKPA UL746 ODERO L746 LUGEB DCT KENIN/N0476F400 DCT TOXAR/N0472F390 DCT BOKSU DCT GUNTA DCT SOKVA DCT KEMET Q11 INTOR |
| Aircraft | A359/H-SDE2E3GHIJ1J3J4J5LM1ORWXY/LB1D1 |
Departure
| Time | N/A |
|---|---|
| Airport | Shanghai Pudong International Airport (ZSPD) |
Arrival
| Time | 2026-05-05 22:26 |
|---|---|
| Airport | Helsinki Vantaa Airport (EFHK) |
| Time | Latitude | Longitude | Altitude | Speed | Heading |
|---|---|---|---|---|---|
| 2026-05-05 20:01 | 43.89226 | 28.30340 | 36180 ft | 463 kts | 319° |
| 2026-05-05 20:02 | 43.91604 | 28.27329 | 36162 ft | 463 kts | 319° |
| 2026-05-05 20:02 | 43.96362 | 28.21287 | 36228 ft | 466 kts | 319° |
| 2026-05-05 20:02 | 43.98756 | 28.18241 | 36348 ft | 469 kts | 319° |
| 2026-05-05 20:03 | 44.01170 | 28.15166 | 36473 ft | 472 kts | 318° |
| 2026-05-05 20:03 | 44.03588 | 28.12081 | 36603 ft | 475 kts | 318° |
| 2026-05-05 20:03 | 44.06026 | 28.08967 | 36719 ft | 476 kts | 318° |
| 2026-05-05 20:03 | 44.08464 | 28.05850 | 36847 ft | 476 kts | 318° |
| 2026-05-05 20:04 | 44.10896 | 28.02735 | 36985 ft | 475 kts | 318° |
| 2026-05-05 20:04 | 44.13322 | 27.99626 | 37106 ft | 474 kts | 318° |
| 2026-05-05 20:04 | 44.15752 | 27.96508 | 37236 ft | 474 kts | 318° |
| 2026-05-05 20:04 | 44.18179 | 27.93391 | 37374 ft | 474 kts | 318° |
| 2026-05-05 20:05 | 44.20601 | 27.90277 | 37493 ft | 473 kts | 318° |
| 2026-05-05 20:05 | 44.23018 | 27.87165 | 37638 ft | 473 kts | 318° |
| 2026-05-05 20:05 | 44.25398 | 27.84097 | 37771 ft | 473 kts | 318° |
| 2026-05-05 20:05 | 44.27812 | 27.80981 | 37899 ft | 472 kts | 319° |
| 2026-05-05 20:06 | 44.30223 | 27.77867 | 38032 ft | 472 kts | 319° |
| 2026-05-05 20:06 | 44.35034 | 27.71638 | 38048 ft | 472 kts | 319° |
| 2026-05-05 20:07 | 44.39838 | 27.65406 | 38047 ft | 471 kts | 319° |
| 2026-05-05 20:07 | 44.44641 | 27.59160 | 38047 ft | 471 kts | 318° |
| 2026-05-05 20:08 | 44.49446 | 27.52898 | 38044 ft | 471 kts | 318° |
| 2026-05-05 20:08 | 44.54241 | 27.46633 | 38041 ft | 472 kts | 318° |
| 2026-05-05 20:09 | 44.59039 | 27.40349 | 38038 ft | 472 kts | 318° |
| 2026-05-05 20:09 | 44.63828 | 27.34062 | 38035 ft | 472 kts | 318° |
| 2026-05-05 20:10 | 44.68617 | 27.27760 | 38033 ft | 472 kts | 318° |
| 2026-05-05 20:10 | 44.73400 | 27.21451 | 38032 ft | 472 kts | 318° |
| 2026-05-05 20:11 | 44.78178 | 27.15133 | 38032 ft | 472 kts | 318° |
| 2026-05-05 20:11 | 44.82961 | 27.08795 | 38030 ft | 471 kts | 318° |
| 2026-05-05 20:12 | 44.87733 | 27.02455 | 38030 ft | 472 kts | 318° |
| 2026-05-05 20:12 | 44.92498 | 26.96110 | 38030 ft | 472 kts | 318° |
| 2026-05-05 20:13 | 44.97273 | 26.89736 | 38029 ft | 472 kts | 318° |
| 2026-05-05 20:13 | 45.02045 | 26.83349 | 38027 ft | 472 kts | 318° |
| 2026-05-05 20:14 | 45.06809 | 26.76959 | 38030 ft | 473 kts | 318° |
| 2026-05-05 20:14 | 45.11550 | 26.70584 | 38028 ft | 473 kts | 318° |
| 2026-05-05 20:15 | 45.16327 | 26.64146 | 38033 ft | 474 kts | 318° |
| 2026-05-05 20:15 | 45.21104 | 26.57692 | 38029 ft | 474 kts | 317° |
| 2026-05-05 20:16 | 45.25905 | 26.51189 | 38029 ft | 475 kts | 317° |
| 2026-05-05 20:16 | 45.30647 | 26.44751 | 38033 ft | 474 kts | 317° |
| 2026-05-05 20:17 | 45.35400 | 26.38281 | 38040 ft | 473 kts | 317° |
| 2026-05-05 20:17 | 45.40182 | 26.31757 | 38043 ft | 473 kts | 317° |
| 2026-05-05 20:18 | 45.44892 | 26.25315 | 38047 ft | 473 kts | 317° |
| 2026-05-05 20:18 | 45.49636 | 26.18809 | 38044 ft | 473 kts | 317° |
| 2026-05-05 20:19 | 45.54361 | 26.12315 | 38040 ft | 472 kts | 317° |
| 2026-05-05 20:19 | 45.59093 | 26.05795 | 38042 ft | 473 kts | 317° |
| 2026-05-05 20:20 | 45.63814 | 25.99273 | 38057 ft | 472 kts | 317° |
| 2026-05-05 20:20 | 45.68535 | 25.92737 | 38045 ft | 472 kts | 317° |
| 2026-05-05 20:21 | 45.73252 | 25.86189 | 38020 ft | 472 kts | 317° |
| 2026-05-05 20:21 | 45.77966 | 25.79629 | 38012 ft | 472 kts | 317° |
| 2026-05-05 20:22 | 45.82678 | 25.73056 | 38032 ft | 472 kts | 317° |
| 2026-05-05 20:22 | 45.87376 | 25.66485 | 38025 ft | 472 kts | 317° |
| 2026-05-05 20:23 | 45.92074 | 25.59899 | 38024 ft | 472 kts | 317° |
| 2026-05-05 20:23 | 45.96766 | 25.53304 | 38016 ft | 472 kts | 317° |
| 2026-05-05 20:24 | 46.01459 | 25.46691 | 38014 ft | 472 kts | 317° |
| 2026-05-05 20:24 | 46.06151 | 25.40064 | 38014 ft | 472 kts | 317° |
| 2026-05-05 20:25 | 46.10830 | 25.33437 | 38011 ft | 472 kts | 316° |
| 2026-05-05 20:25 | 46.15510 | 25.26793 | 38009 ft | 472 kts | 316° |
| 2026-05-05 20:26 | 46.20181 | 25.20145 | 38008 ft | 472 kts | 316° |
| 2026-05-05 20:26 | 46.24848 | 25.13486 | 38004 ft | 471 kts | 316° |
| 2026-05-05 20:27 | 46.28723 | 25.07943 | 38006 ft | 471 kts | 316° |
| 2026-05-05 20:27 | 46.33379 | 25.01269 | 38007 ft | 472 kts | 316° |
| 2026-05-05 20:28 | 46.38041 | 24.94569 | 38004 ft | 472 kts | 316° |
| 2026-05-05 20:28 | 46.42695 | 24.87862 | 37995 ft | 472 kts | 316° |
| 2026-05-05 20:29 | 46.47354 | 24.81132 | 37990 ft | 472 kts | 316° |
| 2026-05-05 20:29 | 46.52003 | 24.74398 | 37980 ft | 473 kts | 316° |
| 2026-05-05 20:30 | 46.56658 | 24.67640 | 37981 ft | 473 kts | 316° |
| 2026-05-05 20:30 | 46.61313 | 24.60864 | 37972 ft | 473 kts | 316° |
| 2026-05-05 20:31 | 46.65965 | 24.54075 | 37975 ft | 473 kts | 316° |
| 2026-05-05 20:31 | 46.71007 | 24.46696 | 37977 ft | 473 kts | 316° |
| 2026-05-05 20:32 | 46.75650 | 24.39883 | 37979 ft | 474 kts | 315° |
| 2026-05-05 20:32 | 46.80263 | 24.33097 | 37979 ft | 474 kts | 315° |
| 2026-05-05 20:33 | 46.84928 | 24.26216 | 37977 ft | 473 kts | 315° |
| 2026-05-05 20:33 | 46.89554 | 24.19375 | 37980 ft | 473 kts | 315° |
| 2026-05-05 20:34 | 46.94144 | 24.12569 | 37974 ft | 473 kts | 315° |
| 2026-05-05 20:34 | 46.98765 | 24.05700 | 37976 ft | 473 kts | 315° |
| 2026-05-05 20:35 | 47.03376 | 23.98828 | 37972 ft | 473 kts | 315° |
| 2026-05-05 20:35 | 47.07979 | 23.91949 | 37970 ft | 473 kts | 315° |
| 2026-05-05 20:36 | 47.12583 | 23.85052 | 37973 ft | 473 kts | 315° |
| 2026-05-05 20:36 | 47.17185 | 23.78138 | 37972 ft | 473 kts | 315° |
| 2026-05-05 20:37 | 47.21781 | 23.71215 | 37970 ft | 473 kts | 315° |
| 2026-05-05 20:37 | 47.26374 | 23.64279 | 37970 ft | 473 kts | 314° |
| 2026-05-05 20:38 | 47.30954 | 23.57343 | 37968 ft | 472 kts | 314° |
| 2026-05-05 20:38 | 47.35531 | 23.50394 | 37969 ft | 472 kts | 314° |
| 2026-05-05 20:39 | 47.40098 | 23.43443 | 37965 ft | 472 kts | 314° |
| 2026-05-05 20:39 | 47.44668 | 23.36468 | 37965 ft | 472 kts | 314° |
| 2026-05-05 20:40 | 47.49228 | 23.29489 | 37966 ft | 472 kts | 314° |
| 2026-05-05 20:40 | 47.53788 | 23.22493 | 37962 ft | 472 kts | 314° |
| 2026-05-05 20:41 | 47.58344 | 23.15483 | 37961 ft | 472 kts | 314° |
| 2026-05-05 20:41 | 47.62892 | 23.08467 | 37942 ft | 473 kts | 314° |
| 2026-05-05 20:42 | 47.67442 | 23.01429 | 37936 ft | 473 kts | 314° |
| 2026-05-05 20:42 | 47.71988 | 22.94378 | 37937 ft | 473 kts | 314° |
| 2026-05-05 20:43 | 47.76536 | 22.87305 | 37937 ft | 473 kts | 314° |
| 2026-05-05 20:43 | 47.81075 | 22.80227 | 37939 ft | 474 kts | 313° |
| 2026-05-05 20:44 | 47.85618 | 22.73123 | 37937 ft | 474 kts | 313° |
| 2026-05-05 20:44 | 47.90168 | 22.65989 | 37936 ft | 475 kts | 313° |
| 2026-05-05 20:45 | 47.96980 | 22.55273 | 37931 ft | 475 kts | 313° |
| 2026-05-05 20:45 | 48.01515 | 22.48108 | 37928 ft | 475 kts | 313° |
| 2026-05-05 20:46 | 48.06048 | 22.40929 | 37924 ft | 475 kts | 313° |
| 2026-05-05 20:46 | 48.10585 | 22.33733 | 37922 ft | 475 kts | 313° |
| 2026-05-05 20:47 | 48.15119 | 22.26519 | 37919 ft | 475 kts | 313° |
| 2026-05-05 20:47 | 48.19640 | 22.19303 | 37918 ft | 475 kts | 312° |
| 2026-05-05 20:48 | 48.23403 | 22.13282 | 37915 ft | 475 kts | 312° |
| 2026-05-05 20:48 | 48.27917 | 22.06041 | 37916 ft | 476 kts | 312° |
| 2026-05-05 20:49 | 48.32726 | 21.99218 | 37915 ft | 477 kts | 323° |
| 2026-05-05 20:49 | 48.38668 | 21.94865 | 37914 ft | 479 kts | 343° |
| 2026-05-05 20:50 | 48.41940 | 21.93937 | 37914 ft | 481 kts | 354° |
| 2026-05-05 20:50 | 48.45291 | 21.93884 | 37917 ft | 482 kts | 2° |
| 2026-05-05 20:50 | 48.51991 | 21.94683 | 37913 ft | 484 kts | 4° |
| 2026-05-05 20:51 | 48.58703 | 21.95652 | 37916 ft | 484 kts | 4° |
| 2026-05-05 20:51 | 48.65411 | 21.96589 | 37918 ft | 484 kts | 4° |
| 2026-05-05 20:52 | 48.72132 | 21.97494 | 37914 ft | 485 kts | 4° |
| 2026-05-05 20:52 | 48.78842 | 21.98388 | 37920 ft | 485 kts | 4° |
| 2026-05-05 20:53 | 48.85565 | 21.99286 | 37923 ft | 485 kts | 4° |
| 2026-05-05 20:53 | 48.92282 | 22.00188 | 37922 ft | 485 kts | 4° |
| 2026-05-05 20:54 | 48.99000 | 22.01093 | 37922 ft | 485 kts | 4° |
| 2026-05-05 20:54 | 49.05729 | 22.02001 | 37914 ft | 485 kts | 4° |
| 2026-05-05 20:55 | 49.12452 | 22.02912 | 37921 ft | 485 kts | 4° |
| 2026-05-05 20:55 | 49.19172 | 22.03824 | 37915 ft | 485 kts | 4° |
| 2026-05-05 20:56 | 49.25892 | 22.04740 | 37918 ft | 485 kts | 4° |
| 2026-05-05 20:56 | 49.32610 | 22.05657 | 37907 ft | 485 kts | 4° |
| 2026-05-05 20:57 | 49.39331 | 22.06577 | 37907 ft | 485 kts | 4° |
| 2026-05-05 20:57 | 49.46007 | 22.07493 | 37892 ft | 485 kts | 4° |
| 2026-05-05 20:58 | 49.52726 | 22.08418 | 37902 ft | 485 kts | 4° |
| 2026-05-05 20:58 | 49.59445 | 22.09346 | 37903 ft | 485 kts | 4° |
| 2026-05-05 20:59 | 49.66165 | 22.10276 | 37894 ft | 486 kts | 4° |
| 2026-05-05 20:59 | 49.72903 | 22.11211 | 37890 ft | 486 kts | 3° |
| 2026-05-05 21:00 | 49.79645 | 22.12150 | 37884 ft | 486 kts | 3° |
| 2026-05-05 21:00 | 49.86384 | 22.13091 | 37866 ft | 486 kts | 3° |
| 2026-05-05 21:01 | 49.93125 | 22.14034 | 37867 ft | 487 kts | 3° |
| 2026-05-05 21:01 | 49.99869 | 22.14981 | 37867 ft | 487 kts | 3° |
| 2026-05-05 21:02 | 50.06621 | 22.15932 | 37860 ft | 487 kts | 3° |
| 2026-05-05 21:02 | 50.13360 | 22.16883 | 37858 ft | 487 kts | 3° |
| 2026-05-05 21:03 | 50.20101 | 22.17837 | 37862 ft | 487 kts | 3° |
| 2026-05-05 21:03 | 50.26852 | 22.18796 | 37862 ft | 487 kts | 3° |
| 2026-05-05 21:04 | 50.33547 | 22.19749 | 37857 ft | 487 kts | 3° |
| 2026-05-05 21:04 | 50.40343 | 22.20719 | 37853 ft | 487 kts | 3° |
| 2026-05-05 21:05 | 50.47043 | 22.21679 | 37857 ft | 487 kts | 3° |
| 2026-05-05 21:05 | 50.53794 | 22.22648 | 37854 ft | 487 kts | 3° |
| 2026-05-05 21:06 | 50.60546 | 22.23621 | 37853 ft | 487 kts | 3° |
| 2026-05-05 21:06 | 50.67293 | 22.24595 | 37853 ft | 487 kts | 3° |
| 2026-05-05 21:07 | 50.74056 | 22.25575 | 37848 ft | 487 kts | 3° |
| 2026-05-05 21:07 | 50.80806 | 22.26555 | 37845 ft | 488 kts | 3° |
| 2026-05-05 21:08 | 50.87573 | 22.27541 | 37850 ft | 488 kts | 3° |
| 2026-05-05 21:08 | 50.94332 | 22.28529 | 37840 ft | 488 kts | 3° |
| 2026-05-05 21:09 | 51.01091 | 22.29519 | 37839 ft | 488 kts | 3° |
| 2026-05-05 21:09 | 51.07844 | 22.30512 | 37842 ft | 488 kts | 3° |
| 2026-05-05 21:10 | 51.14606 | 22.31508 | 37830 ft | 488 kts | 3° |
| 2026-05-05 21:10 | 51.21378 | 22.32510 | 37824 ft | 488 kts | 3° |
| 2026-05-05 21:11 | 51.28134 | 22.33511 | 37828 ft | 488 kts | 3° |
| 2026-05-05 21:11 | 51.34903 | 22.34518 | 37817 ft | 489 kts | 3° |
| 2026-05-05 21:12 | 51.41680 | 22.35529 | 37821 ft | 489 kts | 2° |
| 2026-05-05 21:12 | 51.48407 | 22.36535 | 37813 ft | 489 kts | 2° |
| 2026-05-05 21:13 | 51.55223 | 22.37558 | 37816 ft | 489 kts | 2° |
| 2026-05-05 21:13 | 51.61993 | 22.38577 | 37812 ft | 489 kts | 2° |
| 2026-05-05 21:14 | 51.68761 | 22.39599 | 37798 ft | 489 kts | 2° |
| 2026-05-05 21:14 | 51.75535 | 22.40624 | 37788 ft | 489 kts | 2° |
| 2026-05-05 21:15 | 51.82256 | 22.41644 | 37788 ft | 489 kts | 2° |
| 2026-05-05 21:15 | 51.89035 | 22.42677 | 37796 ft | 489 kts | 2° |
| 2026-05-05 21:16 | 51.95803 | 22.43711 | 37792 ft | 489 kts | 2° |
| 2026-05-05 21:16 | 52.02571 | 22.44748 | 37789 ft | 489 kts | 2° |
| 2026-05-05 21:17 | 52.09344 | 22.45789 | 37789 ft | 489 kts | 2° |
| 2026-05-05 21:17 | 52.16123 | 22.46835 | 37786 ft | 489 kts | 2° |
| 2026-05-05 21:18 | 52.22908 | 22.47884 | 37787 ft | 490 kts | 2° |
| 2026-05-05 21:18 | 52.29700 | 22.48938 | 37787 ft | 490 kts | 2° |
| 2026-05-05 21:19 | 52.36480 | 22.49994 | 37785 ft | 490 kts | 2° |
| 2026-05-05 21:19 | 52.43278 | 22.51055 | 37787 ft | 490 kts | 2° |
| 2026-05-05 21:20 | 52.50058 | 22.52116 | 37787 ft | 490 kts | 2° |
| 2026-05-05 21:20 | 52.56857 | 22.53184 | 37792 ft | 490 kts | 2° |
| 2026-05-05 21:21 | 52.63647 | 22.54289 | 37797 ft | 491 kts | 4° |
| 2026-05-05 21:21 | 52.70355 | 22.56201 | 37800 ft | 493 kts | 8° |
| 2026-05-05 21:22 | 52.77074 | 22.58434 | 37801 ft | 493 kts | 8° |
| 2026-05-05 21:22 | 52.83817 | 22.60555 | 37808 ft | 493 kts | 7° |
| 2026-05-05 21:23 | 52.90567 | 22.62584 | 37813 ft | 493 kts | 7° |
| 2026-05-05 21:23 | 52.97325 | 22.64598 | 37814 ft | 493 kts | 7° |
| 2026-05-05 21:24 | 53.04071 | 22.66618 | 37818 ft | 493 kts | 7° |
| 2026-05-05 21:24 | 53.10831 | 22.68654 | 37822 ft | 494 kts | 7° |
| 2026-05-05 21:25 | 53.17608 | 22.70703 | 37826 ft | 494 kts | 6° |
| 2026-05-05 21:25 | 53.24375 | 22.72756 | 37834 ft | 495 kts | 6° |
| 2026-05-05 21:26 | 53.31158 | 22.74820 | 37838 ft | 495 kts | 6° |
| 2026-05-05 21:26 | 53.37936 | 22.76889 | 37843 ft | 496 kts | 6° |
| 2026-05-05 21:27 | 53.44725 | 22.78968 | 37842 ft | 496 kts | 6° |
| 2026-05-05 21:27 | 53.51521 | 22.81056 | 37849 ft | 496 kts | 6° |
| 2026-05-05 21:28 | 53.58310 | 22.83149 | 37854 ft | 497 kts | 6° |
| 2026-05-05 21:28 | 53.65118 | 22.85255 | 37860 ft | 497 kts | 6° |
| 2026-05-05 21:29 | 53.71922 | 22.87366 | 37868 ft | 498 kts | 6° |
| 2026-05-05 21:29 | 53.78731 | 22.89486 | 37865 ft | 498 kts | 6° |
| 2026-05-05 21:30 | 53.85563 | 22.91620 | 37869 ft | 499 kts | 6° |
| 2026-05-05 21:30 | 53.92341 | 22.93745 | 37876 ft | 499 kts | 6° |
| 2026-05-05 21:31 | 53.99217 | 22.95907 | 37879 ft | 499 kts | 6° |
| 2026-05-05 21:31 | 54.06032 | 22.98057 | 37879 ft | 499 kts | 6° |
| 2026-05-05 21:32 | 54.12874 | 23.00222 | 37884 ft | 499 kts | 6° |
| 2026-05-05 21:32 | 54.19706 | 23.02395 | 37887 ft | 499 kts | 6° |
| 2026-05-05 21:33 | 54.26487 | 23.04575 | 37886 ft | 499 kts | 6° |
| 2026-05-05 21:33 | 54.33312 | 23.06776 | 37893 ft | 499 kts | 6° |
| 2026-05-05 21:34 | 54.40148 | 23.08989 | 37893 ft | 500 kts | 6° |
| 2026-05-05 21:34 | 54.46971 | 23.11204 | 37895 ft | 500 kts | 6° |
| 2026-05-05 21:35 | 54.53808 | 23.13431 | 37897 ft | 500 kts | 6° |
| 2026-05-05 21:35 | 54.60641 | 23.15664 | 37897 ft | 500 kts | 6° |
| 2026-05-05 21:36 | 54.66372 | 23.17543 | 37899 ft | 500 kts | 6° |
| 2026-05-05 21:36 | 54.73200 | 23.19788 | 37899 ft | 500 kts | 6° |
| 2026-05-05 21:37 | 54.80035 | 23.22044 | 37902 ft | 500 kts | 6° |
| 2026-05-05 21:37 | 54.86868 | 23.24307 | 37900 ft | 500 kts | 6° |
| 2026-05-05 21:38 | 54.93705 | 23.26579 | 37899 ft | 500 kts | 6° |
| 2026-05-05 21:38 | 55.00495 | 23.28843 | 37900 ft | 501 kts | 6° |
| 2026-05-05 21:39 | 55.07349 | 23.31137 | 37895 ft | 501 kts | 6° |
| 2026-05-05 21:39 | 55.14191 | 23.33434 | 37903 ft | 501 kts | 6° |
| 2026-05-05 21:40 | 55.21048 | 23.35745 | 37909 ft | 502 kts | 6° |
| 2026-05-05 21:40 | 55.27912 | 23.38066 | 37891 ft | 503 kts | 6° |
| 2026-05-05 21:41 | 55.34788 | 23.40399 | 37899 ft | 503 kts | 6° |
| 2026-05-05 21:41 | 55.41657 | 23.42738 | 37899 ft | 503 kts | 6° |
| 2026-05-05 21:42 | 55.48534 | 23.45089 | 37903 ft | 504 kts | 6° |
| 2026-05-05 21:42 | 55.55420 | 23.47450 | 37904 ft | 504 kts | 6° |
| 2026-05-05 21:43 | 55.62291 | 23.49815 | 37909 ft | 504 kts | 6° |
| 2026-05-05 21:43 | 55.69182 | 23.52195 | 37911 ft | 504 kts | 6° |
| 2026-05-05 21:44 | 55.76073 | 23.54584 | 37914 ft | 505 kts | 6° |
| 2026-05-05 21:44 | 55.82966 | 23.56982 | 37910 ft | 505 kts | 6° |
| 2026-05-05 21:45 | 55.89863 | 23.59390 | 37911 ft | 505 kts | 6° |
| 2026-05-05 21:45 | 55.96772 | 23.61811 | 37915 ft | 506 kts | 6° |
| 2026-05-05 21:46 | 56.03686 | 23.64243 | 37914 ft | 506 kts | 6° |
| 2026-05-05 21:46 | 56.10586 | 23.66678 | 37917 ft | 506 kts | 6° |
| 2026-05-05 21:47 | 56.17502 | 23.69129 | 37921 ft | 507 kts | 6° |
| 2026-05-05 21:47 | 56.24422 | 23.71590 | 37921 ft | 507 kts | 6° |
| 2026-05-05 21:48 | 56.31336 | 23.74058 | 37927 ft | 507 kts | 6° |
| 2026-05-05 21:48 | 56.38263 | 23.76539 | 37923 ft | 507 kts | 6° |
| 2026-05-05 21:49 | 56.45178 | 23.79025 | 37928 ft | 507 kts | 6° |
| 2026-05-05 21:49 | 56.52105 | 23.81525 | 37925 ft | 507 kts | 6° |
| 2026-05-05 21:50 | 56.59023 | 23.84030 | 37926 ft | 507 kts | 6° |
| 2026-05-05 21:50 | 56.65945 | 23.86547 | 37923 ft | 507 kts | 6° |
| 2026-05-05 21:51 | 56.72862 | 23.89071 | 37922 ft | 507 kts | 6° |
| 2026-05-05 21:51 | 56.79783 | 23.91607 | 37914 ft | 507 kts | 6° |
| 2026-05-05 21:52 | 56.90163 | 23.95427 | 37914 ft | 507 kts | 6° |
| 2026-05-05 21:53 | 56.97089 | 23.97989 | 37903 ft | 508 kts | 6° |
| 2026-05-05 21:53 | 57.04012 | 24.00559 | 37911 ft | 508 kts | 6° |
| 2026-05-05 21:54 | 57.10913 | 24.03131 | 37932 ft | 508 kts | 6° |
| 2026-05-05 21:54 | 57.17859 | 24.05729 | 37928 ft | 508 kts | 6° |
| 2026-05-05 21:55 | 57.24784 | 24.08329 | 37924 ft | 508 kts | 6° |
| 2026-05-05 21:55 | 57.31707 | 24.10939 | 37932 ft | 508 kts | 6° |
| 2026-05-05 21:56 | 57.38642 | 24.13563 | 37925 ft | 508 kts | 6° |
| 2026-05-05 21:56 | 57.45574 | 24.16196 | 37926 ft | 509 kts | 6° |
| 2026-05-05 21:57 | 57.52512 | 24.18842 | 37930 ft | 509 kts | 6° |
| 2026-05-05 21:57 | 57.59408 | 24.21482 | 37933 ft | 510 kts | 6° |
| 2026-05-05 21:58 | 57.66363 | 24.24154 | 37930 ft | 511 kts | 6° |
| 2026-05-05 21:58 | 57.73332 | 24.26844 | 37927 ft | 511 kts | 6° |
| 2026-05-05 21:59 | 57.80299 | 24.29542 | 37928 ft | 511 kts | 6° |
| 2026-05-05 21:59 | 57.87275 | 24.32255 | 37920 ft | 512 kts | 6° |
| 2026-05-05 22:00 | 57.94243 | 24.34976 | 37924 ft | 512 kts | 6° |
| 2026-05-05 22:00 | 58.01219 | 24.37710 | 37928 ft | 512 kts | 6° |
| 2026-05-05 22:01 | 58.08188 | 24.40453 | 37926 ft | 512 kts | 6° |
| 2026-05-05 22:01 | 58.15152 | 24.43204 | 37921 ft | 512 kts | 6° |
| 2026-05-05 22:02 | 58.22136 | 24.45975 | 37917 ft | 512 kts | 6° |
| 2026-05-05 22:02 | 58.29104 | 24.48750 | 37916 ft | 512 kts | 6° |
| 2026-05-05 22:03 | 58.36061 | 24.51532 | 37913 ft | 511 kts | 6° |
| 2026-05-05 22:03 | 58.43025 | 24.54328 | 37913 ft | 511 kts | 6° |
| 2026-05-05 22:04 | 58.49983 | 24.57134 | 37912 ft | 511 kts | 6° |
| 2026-05-05 22:04 | 58.56951 | 24.59954 | 37914 ft | 511 kts | 6° |
| 2026-05-05 22:05 | 58.63904 | 24.62780 | 37908 ft | 511 kts | 6° |
| 2026-05-05 22:05 | 58.70821 | 24.65602 | 37909 ft | 511 kts | 6° |
| 2026-05-05 22:06 | 58.77831 | 24.68474 | 37908 ft | 511 kts | 6° |
| 2026-05-05 22:06 | 58.81272 | 24.69894 | 37776 ft | 500 kts | 6° |
| 2026-05-05 22:06 | 58.84615 | 24.71277 | 37200 ft | 498 kts | 6° |
| 2026-05-05 22:06 | 58.88030 | 24.72678 | 36145 ft | 507 kts | 6° |
| 2026-05-05 22:07 | 58.91492 | 24.74101 | 35197 ft | 513 kts | 5° |
| 2026-05-05 22:07 | 58.95012 | 24.75553 | 34350 ft | 517 kts | 5° |
| 2026-05-05 22:07 | 58.98531 | 24.77004 | 33460 ft | 520 kts | 5° |
| 2026-05-05 22:07 | 59.02094 | 24.78490 | 32470 ft | 523 kts | 5° |
| 2026-05-05 22:08 | 59.05659 | 24.79981 | 31529 ft | 525 kts | 5° |
| 2026-05-05 22:08 | 59.09231 | 24.81476 | 30591 ft | 528 kts | 5° |
| 2026-05-05 22:08 | 59.12834 | 24.82986 | 29589 ft | 530 kts | 5° |
| 2026-05-05 22:08 | 59.16439 | 24.84500 | 28603 ft | 530 kts | 5° |
| 2026-05-05 22:09 | 59.20038 | 24.86018 | 27820 ft | 526 kts | 5° |
| 2026-05-05 22:09 | 59.23594 | 24.87522 | 27085 ft | 522 kts | 5° |
| 2026-05-05 22:09 | 59.27129 | 24.89019 | 26386 ft | 518 kts | 5° |
| 2026-05-05 22:09 | 59.30633 | 24.90505 | 25725 ft | 513 kts | 5° |
| 2026-05-05 22:10 | 59.34106 | 24.91979 | 25070 ft | 509 kts | 5° |
| 2026-05-05 22:10 | 59.37552 | 24.93445 | 24445 ft | 504 kts | 5° |
| 2026-05-05 22:10 | 59.40967 | 24.94900 | 23822 ft | 500 kts | 5° |
| 2026-05-05 22:10 | 59.44354 | 24.96345 | 23150 ft | 496 kts | 5° |
| 2026-05-05 22:11 | 59.47711 | 24.97781 | 22427 ft | 492 kts | 5° |
| 2026-05-05 22:11 | 59.51041 | 24.99208 | 21715 ft | 487 kts | 5° |
| 2026-05-05 22:11 | 59.54339 | 25.00624 | 21023 ft | 483 kts | 5° |
| 2026-05-05 22:11 | 59.57599 | 25.02026 | 20347 ft | 478 kts | 5° |
| 2026-05-05 22:12 | 59.60794 | 25.03404 | 19706 ft | 473 kts | 5° |
| 2026-05-05 22:12 | 59.63995 | 25.04786 | 19050 ft | 469 kts | 5° |
| 2026-05-05 22:12 | 59.67170 | 25.06160 | 18409 ft | 465 kts | 5° |
| 2026-05-05 22:12 | 59.70312 | 25.07522 | 17722 ft | 461 kts | 5° |
| 2026-05-05 22:13 | 59.73465 | 25.08890 | 17026 ft | 456 kts | 5° |
| 2026-05-05 22:13 | 59.76511 | 25.10216 | 16364 ft | 451 kts | 5° |
| 2026-05-05 22:13 | 59.79595 | 25.11561 | 15700 ft | 446 kts | 5° |
| 2026-05-05 22:13 | 59.82611 | 25.12878 | 15046 ft | 441 kts | 5° |
| 2026-05-05 22:14 | 59.85560 | 25.14168 | 14497 ft | 435 kts | 5° |
| 2026-05-05 22:14 | 59.88472 | 25.15451 | 14214 ft | 422 kts | 6° |
| 2026-05-05 22:14 | 59.91333 | 25.16716 | 13946 ft | 409 kts | 5° |
| 2026-05-05 22:14 | 59.94027 | 25.17906 | 13696 ft | 397 kts | 5° |
| 2026-05-05 22:15 | 59.96687 | 25.19079 | 13433 ft | 385 kts | 5° |
| 2026-05-05 22:15 | 59.99267 | 25.20217 | 13194 ft | 374 kts | 5° |
| 2026-05-05 22:15 | 60.01761 | 25.21319 | 12962 ft | 362 kts | 5° |
| 2026-05-05 22:15 | 60.04139 | 25.22372 | 12746 ft | 352 kts | 5° |
| 2026-05-05 22:16 | 60.06499 | 25.23417 | 12535 ft | 341 kts | 5° |
| 2026-05-05 22:16 | 60.08782 | 25.24431 | 12330 ft | 331 kts | 6° |
| 2026-05-05 22:16 | 60.11003 | 25.25417 | 12065 ft | 324 kts | 6° |
| 2026-05-05 22:16 | 60.13185 | 25.26383 | 11730 ft | 319 kts | 6° |
| 2026-05-05 22:17 | 60.15340 | 25.27339 | 11405 ft | 315 kts | 6° |
| 2026-05-05 22:17 | 60.17457 | 25.28281 | 11070 ft | 310 kts | 7° |
| 2026-05-05 22:17 | 60.19555 | 25.29217 | 10740 ft | 306 kts | 7° |
| 2026-05-05 22:17 | 60.21620 | 25.30140 | 10421 ft | 302 kts | 7° |
| 2026-05-05 22:18 | 60.23657 | 25.31054 | 10088 ft | 298 kts | 7° |
| 2026-05-05 22:18 | 60.25668 | 25.31955 | 9761 ft | 295 kts | 8° |
| 2026-05-05 22:18 | 60.27654 | 25.32846 | 9405 ft | 291 kts | 8° |
| 2026-05-05 22:18 | 60.29625 | 25.33735 | 8996 ft | 289 kts | 8° |
| 2026-05-05 22:19 | 60.31582 | 25.34618 | 8593 ft | 287 kts | 8° |
| 2026-05-05 22:19 | 60.33501 | 25.35487 | 8410 ft | 278 kts | 8° |
| 2026-05-05 22:19 | 60.35355 | 25.36330 | 8239 ft | 268 kts | 8° |
| 2026-05-05 22:19 | 60.37145 | 25.37142 | 8074 ft | 259 kts | 8° |
| 2026-05-05 22:20 | 60.38889 | 25.37791 | 7796 ft | 252 kts | 359° |
| 2026-05-05 22:20 | 60.40562 | 25.37239 | 7490 ft | 240 kts | 331° |
| 2026-05-05 22:20 | 60.41900 | 25.35350 | 7225 ft | 232 kts | 315° |
| 2026-05-05 22:20 | 60.43086 | 25.33143 | 6931 ft | 229 kts | 314° |
| 2026-05-05 22:21 | 60.43847 | 25.31717 | 6841 ft | 223 kts | 314° |
| 2026-05-05 22:21 | 60.44894 | 25.29574 | 6607 ft | 205 kts | 304° |
| 2026-05-05 22:21 | 60.45268 | 25.26915 | 6128 ft | 199 kts | 263° |
| 2026-05-05 22:21 | 60.44971 | 25.24769 | 5736 ft | 198 kts | 250° |
| 2026-05-05 22:22 | 60.44213 | 25.22453 | 5441 ft | 191 kts | 230° |
| 2026-05-05 22:22 | 60.43322 | 25.20646 | 5307 ft | 172 kts | 231° |
| 2026-05-05 22:22 | 60.42536 | 25.18914 | 4993 ft | 165 kts | 233° |
| 2026-05-05 22:22 | 60.41770 | 25.17190 | 4592 ft | 164 kts | 233° |
| 2026-05-05 22:23 | 60.41010 | 25.15480 | 4208 ft | 162 kts | 233° |
| 2026-05-05 22:23 | 60.40248 | 25.13770 | 3634 ft | 169 kts | 233° |
| 2026-05-05 22:23 | 60.39429 | 25.11901 | 2828 ft | 185 kts | 233° |
| 2026-05-05 22:23 | 60.38591 | 25.10004 | 2365 ft | 180 kts | 232° |
| 2026-05-05 22:24 | 60.37706 | 25.08213 | 1880 ft | 175 kts | 229° |
| 2026-05-05 22:24 | 60.36897 | 25.06507 | 1580 ft | 162 kts | 233° |
| 2026-05-05 22:24 | 60.36189 | 25.04881 | 1304 ft | 147 kts | 232° |
| 2026-05-05 22:24 | 60.35533 | 25.03372 | 993 ft | 138 kts | 230° |
| 2026-05-05 22:25 | 60.34908 | 25.01948 | 688 ft | 131 kts | 232° |
| 2026-05-05 22:25 | 60.34308 | 25.00590 | 488 ft | 131 kts | 227° |
| 2026-05-05 22:25 | 60.33686 | 24.99271 | 398 ft | 133 kts | 231° |
| 2026-05-05 22:25 | 60.33048 | 24.97845 | 309 ft | 145 kts | 230° |
| 2026-05-05 22:26 | 60.32360 | 24.96345 | 207 ft | 140 kts | 231° |
| 2026-05-05 22:26 | 60.31756 | 24.94998 | 180 ft | 118 kts | 230° |
| 2026-05-05 22:26 | 60.31340 | 24.94101 | 167 ft | 47 kts | 229° |
| 2026-05-05 22:26 | 60.31203 | 24.93795 | 165 ft | 25 kts | 223° |
| 2026-05-05 22:27 | 60.31076 | 24.93773 | 165 ft | 16 kts | 142° |
| 2026-05-05 22:27 | 60.31044 | 24.93977 | 164 ft | 17 kts | 73° |
| 2026-05-05 22:27 | 60.31122 | 24.94185 | 163 ft | 20 kts | 47° |
| 2026-05-05 22:27 | 60.31219 | 24.94396 | 165 ft | 21 kts | 47° |
| 2026-05-05 22:28 | 60.31321 | 24.94618 | 167 ft | 18 kts | 47° |
| 2026-05-05 22:28 | 60.31398 | 24.94793 | 171 ft | 13 kts | 46° |
| 2026-05-05 22:28 | 60.31442 | 24.94905 | 173 ft | 9 kts | 66° |
| 2026-05-05 22:28 | 60.31428 | 24.95020 | 173 ft | 10 kts | 130° |
| 2026-05-05 22:29 | 60.31359 | 24.95157 | 173 ft | 16 kts | 137° |
| 2026-05-05 22:29 | 60.31272 | 24.95320 | 172 ft | 19 kts | 137° |
| 2026-05-05 22:29 | 60.31179 | 24.95492 | 172 ft | 16 kts | 131° |
| 2026-05-05 22:29 | 60.31199 | 24.95679 | 173 ft | 16 kts | 47° |
| 2026-05-05 22:30 | 60.31279 | 24.95856 | 173 ft | 18 kts | 48° |
| 2026-05-05 22:30 | 60.31348 | 24.96013 | 173 ft | 12 kts | 58° |
| 2026-05-05 22:30 | 60.31352 | 24.96125 | 173 ft | 5 kts | 87° |
| 2026-05-05 22:30 | 60.31366 | 24.96177 | 173 ft | 4 kts | 51° |
| 2026-05-05 22:31 | 60.31381 | 24.96214 | 173 ft | 3 kts | 50° |
| 2026-05-05 22:31 | 60.31388 | 24.96230 | 173 ft | 0 kts | 49° |
| 2026-05-05 22:31 | 60.31394 | 24.96244 | 173 ft | 3 kts | 48° |
| 2026-05-05 22:31 | 60.31396 | 24.96249 | 173 ft | 0 kts | 48° |